sensor_id;sensor_type;location;lat;lon;timestamp;P1;durP1;ratioP1;P2;durP2;ratioP2
18407;SDS011;9330;52.210;21.174;2023-07-29T00:02:05;4.25;;;3.85;;
18407;SDS011;9330;52.210;21.174;2023-07-29T00:04:32;4.30;;;3.90;;
18407;SDS011;9330;52.210;21.174;2023-07-29T00:06:58;4.30;;;3.78;;
18407;SDS011;9330;52.210;21.174;2023-07-29T00:09:27;4.78;;;4.05;;
18407;SDS011;9330;52.210;21.174;2023-07-29T00:11:54;5.97;;;4.47;;
18407;SDS011;9330;52.210;21.174;2023-07-29T00:14:20;4.70;;;4.00;;
18407;SDS011;9330;52.210;21.174;2023-07-29T00:16:47;6.75;;;4.22;;
18407;SDS011;9330;52.210;21.174;2023-07-29T00:19:14;6.38;;;3.90;;
18407;SDS011;9330;52.210;21.174;2023-07-29T00:21:41;4.00;;;3.70;;
18407;SDS011;9330;52.210;21.174;2023-07-29T00:24:08;4.28;;;3.88;;
18407;SDS011;9330;52.210;21.174;2023-07-29T00:26:36;6.03;;;4.25;;
18407;SDS011;9330;52.210;21.174;2023-07-29T00:29:03;4.70;;;4.30;;
18407;SDS011;9330;52.210;21.174;2023-07-29T00:31:30;3.97;;;3.67;;
18407;SDS011;9330;52.210;21.174;2023-07-29T00:33:57;4.10;;;3.70;;
18407;SDS011;9330;52.210;21.174;2023-07-29T00:36:24;4.70;;;4.30;;
18407;SDS011;9330;52.210;21.174;2023-07-29T00:38:51;4.95;;;3.60;;
18407;SDS011;9330;52.210;21.174;2023-07-29T00:41:22;4.25;;;3.85;;
18407;SDS011;9330;52.210;21.174;2023-07-29T00:43:51;3.83;;;3.40;;
18407;SDS011;9330;52.210;21.174;2023-07-29T00:46:18;3.85;;;3.55;;
18407;SDS011;9330;52.210;21.174;2023-07-29T00:48:46;4.20;;;3.83;;
18407;SDS011;9330;52.210;21.174;2023-07-29T00:51:13;4.25;;;3.85;;
18407;SDS011;9330;52.210;21.174;2023-07-29T00:53:40;3.78;;;3.47;;
18407;SDS011;9330;52.210;21.174;2023-07-29T00:56:07;4.13;;;3.83;;
18407;SDS011;9330;52.210;21.174;2023-07-29T00:58:34;4.70;;;4.07;;
18407;SDS011;9330;52.210;21.174;2023-07-29T01:01:02;4.68;;;3.60;;
18407;SDS011;9330;52.210;21.174;2023-07-29T01:03:29;5.38;;;4.22;;
18407;SDS011;9330;52.210;21.174;2023-07-29T01:05:59;9.13;;;4.57;;
18407;SDS011;9330;52.210;21.174;2023-07-29T01:08:37;5.05;;;4.65;;
18407;SDS011;9330;52.210;21.174;2023-07-29T01:11:12;5.80;;;5.07;;
18407;SDS011;9330;52.210;21.174;2023-07-29T01:13:53;6.40;;;5.80;;
18407;SDS011;9330;52.210;21.174;2023-07-29T01:16:29;7.40;;;6.20;;
18407;SDS011;9330;52.210;21.174;2023-07-29T01:19:00;7.55;;;6.85;;
18407;SDS011;9330;52.210;21.174;2023-07-29T01:21:33;7.63;;;6.65;;
18407;SDS011;9330;52.210;21.174;2023-07-29T01:24:03;6.50;;;5.90;;
18407;SDS011;9330;52.210;21.174;2023-07-29T01:26:30;6.85;;;4.97;;
18407;SDS011;9330;52.210;21.174;2023-07-29T01:28:57;7.85;;;4.82;;
18407;SDS011;9330;52.210;21.174;2023-07-29T01:31:27;5.30;;;4.40;;
18407;SDS011;9330;52.210;21.174;2023-07-29T01:33:58;5.55;;;5.05;;
18407;SDS011;9330;52.210;21.174;2023-07-29T01:36:41;5.10;;;4.50;;
18407;SDS011;9330;52.210;21.174;2023-07-29T01:39:12;5.82;;;4.82;;
18407;SDS011;9330;52.210;21.174;2023-07-29T01:41:42;4.80;;;4.40;;
18407;SDS011;9330;52.210;21.174;2023-07-29T01:44:11;4.80;;;4.40;;
18407;SDS011;9330;52.210;21.174;2023-07-29T01:46:39;6.65;;;4.60;;
18407;SDS011;9330;52.210;21.174;2023-07-29T01:49:06;5.30;;;4.68;;
18407;SDS011;9330;52.210;21.174;2023-07-29T01:51:33;5.40;;;4.60;;
18407;SDS011;9330;52.210;21.174;2023-07-29T01:54:00;4.97;;;4.47;;
18407;SDS011;9330;52.210;21.174;2023-07-29T01:56:28;5.40;;;4.40;;
18407;SDS011;9330;52.210;21.174;2023-07-29T01:58:55;5.03;;;4.53;;
18407;SDS011;9330;52.210;21.174;2023-07-29T02:01:22;4.78;;;4.25;;
18407;SDS011;9330;52.210;21.174;2023-07-29T02:03:49;6.70;;;4.18;;
18407;SDS011;9330;52.210;21.174;2023-07-29T02:06:20;6.40;;;4.38;;
18407;SDS011;9330;52.210;21.174;2023-07-29T02:08:47;5.95;;;4.60;;
18407;SDS011;9330;52.210;21.174;2023-07-29T02:11:14;5.53;;;4.63;;
18407;SDS011;9330;52.210;21.174;2023-07-29T02:13:42;4.90;;;4.13;;
18407;SDS011;9330;52.210;21.174;2023-07-29T02:16:09;3.97;;;3.67;;
18407;SDS011;9330;52.210;21.174;2023-07-29T02:18:36;4.72;;;3.50;;
18407;SDS011;9330;52.210;21.174;2023-07-29T02:21:03;4.13;;;3.75;;
18407;SDS011;9330;52.210;21.174;2023-07-29T02:23:29;4.18;;;3.88;;
18407;SDS011;9330;52.210;21.174;2023-07-29T02:25:56;6.03;;;4.05;;
18407;SDS011;9330;52.210;21.174;2023-07-29T02:28:23;5.00;;;4.10;;
18407;SDS011;9330;52.210;21.174;2023-07-29T02:31:08;4.05;;;3.63;;
18407;SDS011;9330;52.210;21.174;2023-07-29T02:33:36;5.05;;;4.05;;
18407;SDS011;9330;52.210;21.174;2023-07-29T02:36:03;5.13;;;3.85;;
18407;SDS011;9330;52.210;21.174;2023-07-29T02:38:30;4.07;;;3.67;;
18407;SDS011;9330;52.210;21.174;2023-07-29T02:40:57;4.32;;;3.92;;
18407;SDS011;9330;52.210;21.174;2023-07-29T02:43:24;4.20;;;3.83;;
18407;SDS011;9330;52.210;21.174;2023-07-29T02:45:52;5.38;;;3.90;;
18407;SDS011;9330;52.210;21.174;2023-07-29T02:48:19;4.88;;;4.43;;
18407;SDS011;9330;52.210;21.174;2023-07-29T02:50:46;4.53;;;4.13;;
18407;SDS011;9330;52.210;21.174;2023-07-29T02:53:13;4.35;;;3.95;;
18407;SDS011;9330;52.210;21.174;2023-07-29T02:55:40;4.32;;;3.92;;
18407;SDS011;9330;52.210;21.174;2023-07-29T02:58:07;4.07;;;3.78;;
18407;SDS011;9330;52.210;21.174;2023-07-29T03:00:34;5.78;;;4.03;;
18407;SDS011;9330;52.210;21.174;2023-07-29T03:03:02;4.45;;;4.05;;
18407;SDS011;9330;52.210;21.174;2023-07-29T03:05:29;4.50;;;4.10;;
18407;SDS011;9330;52.210;21.174;2023-07-29T03:07:57;5.25;;;4.75;;
18407;SDS011;9330;52.210;21.174;2023-07-29T03:10:24;4.78;;;4.25;;
18407;SDS011;9330;52.210;21.174;2023-07-29T03:12:53;4.05;;;3.72;;
18407;SDS011;9330;52.210;21.174;2023-07-29T03:15:22;4.57;;;3.80;;
18407;SDS011;9330;52.210;21.174;2023-07-29T03:17:50;4.38;;;3.95;;
18407;SDS011;9330;52.210;21.174;2023-07-29T03:20:19;8.32;;;4.63;;
18407;SDS011;9330;52.210;21.174;2023-07-29T03:22:46;5.07;;;4.20;;
18407;SDS011;9330;52.210;21.174;2023-07-29T03:25:13;3.83;;;3.42;;
18407;SDS011;9330;52.210;21.174;2023-07-29T03:27:41;4.30;;;3.90;;
18407;SDS011;9330;52.210;21.174;2023-07-29T03:30:08;4.30;;;3.95;;
18407;SDS011;9330;52.210;21.174;2023-07-29T03:32:37;7.35;;;4.63;;
18407;SDS011;9330;52.210;21.174;2023-07-29T03:35:07;4.10;;;3.70;;
18407;SDS011;9330;52.210;21.174;2023-07-29T03:37:36;4.28;;;3.88;;
18407;SDS011;9330;52.210;21.174;2023-07-29T03:40:03;4.50;;;4.10;;
18407;SDS011;9330;52.210;21.174;2023-07-29T03:42:31;5.03;;;4.53;;
18407;SDS011;9330;52.210;21.174;2023-07-29T03:44:58;4.97;;;4.55;;
18407;SDS011;9330;52.210;21.174;2023-07-29T03:47:26;5.13;;;4.63;;
18407;SDS011;9330;52.210;21.174;2023-07-29T03:49:53;5.13;;;4.63;;
18407;SDS011;9330;52.210;21.174;2023-07-29T03:52:20;5.40;;;4.90;;
18407;SDS011;9330;52.210;21.174;2023-07-29T03:54:48;9.25;;;5.20;;
18407;SDS011;9330;52.210;21.174;2023-07-29T03:57:15;7.40;;;6.15;;
18407;SDS011;9330;52.210;21.174;2023-07-29T03:59:42;7.13;;;6.43;;
18407;SDS011;9330;52.210;21.174;2023-07-29T04:02:09;7.32;;;5.90;;
18407;SDS011;9330;52.210;21.174;2023-07-29T04:04:36;6.28;;;5.68;;
18407;SDS011;9330;52.210;21.174;2023-07-29T04:07:03;9.55;;;5.90;;
18407;SDS011;9330;52.210;21.174;2023-07-29T04:09:32;5.97;;;5.38;;
18407;SDS011;9330;52.210;21.174;2023-07-29T04:12:01;6.85;;;6.15;;
18407;SDS011;9330;52.210;21.174;2023-07-29T04:14:28;8.48;;;6.72;;
18407;SDS011;9330;52.210;21.174;2023-07-29T04:16:55;10.30;;;6.80;;
18407;SDS011;9330;52.210;21.174;2023-07-29T04:19:22;8.15;;;7.15;;
18407;SDS011;9330;52.210;21.174;2023-07-29T04:21:49;7.35;;;6.60;;
18407;SDS011;9330;52.210;21.174;2023-07-29T04:24:16;6.80;;;6.10;;
18407;SDS011;9330;52.210;21.174;2023-07-29T04:26:45;10.10;;;6.72;;
18407;SDS011;9330;52.210;21.174;2023-07-29T04:29:13;8.05;;;6.63;;
18407;SDS011;9330;52.210;21.174;2023-07-29T04:31:40;10.57;;;7.20;;
18407;SDS011;9330;52.210;21.174;2023-07-29T04:34:07;7.65;;;6.78;;
18407;SDS011;9330;52.210;21.174;2023-07-29T04:36:35;7.82;;;6.65;;
18407;SDS011;9330;52.210;21.174;2023-07-29T04:39:02;9.95;;;6.22;;
18407;SDS011;9330;52.210;21.174;2023-07-29T04:41:29;8.85;;;6.88;;
18407;SDS011;9330;52.210;21.174;2023-07-29T04:43:56;8.18;;;6.78;;
18407;SDS011;9330;52.210;21.174;2023-07-29T04:46:24;10.52;;;7.13;;
18407;SDS011;9330;52.210;21.174;2023-07-29T04:48:51;8.40;;;6.70;;
18407;SDS011;9330;52.210;21.174;2023-07-29T04:51:17;7.82;;;6.60;;
18407;SDS011;9330;52.210;21.174;2023-07-29T04:53:44;7.82;;;6.22;;
18407;SDS011;9330;52.210;21.174;2023-07-29T04:56:11;8.25;;;6.63;;
18407;SDS011;9330;52.210;21.174;2023-07-29T04:58:38;8.07;;;7.28;;
18407;SDS011;9330;52.210;21.174;2023-07-29T05:01:05;8.25;;;7.45;;
18407;SDS011;9330;52.210;21.174;2023-07-29T05:03:34;9.10;;;7.95;;
18407;SDS011;9330;52.210;21.174;2023-07-29T05:06:02;10.50;;;9.40;;
18407;SDS011;9330;52.210;21.174;2023-07-29T05:08:29;10.05;;;9.05;;
18407;SDS011;9330;52.210;21.174;2023-07-29T05:10:55;9.75;;;8.85;;
18407;SDS011;9330;52.210;21.174;2023-07-29T05:13:23;9.60;;;8.63;;
18407;SDS011;9330;52.210;21.174;2023-07-29T05:15:50;9.63;;;8.63;;
18407;SDS011;9330;52.210;21.174;2023-07-29T05:18:17;10.95;;;9.30;;
18407;SDS011;9330;52.210;21.174;2023-07-29T05:20:46;11.48;;;10.48;;
18407;SDS011;9330;52.210;21.174;2023-07-29T05:23:13;10.70;;;9.70;;
18407;SDS011;9330;52.210;21.174;2023-07-29T05:25:40;10.15;;;9.25;;
18407;SDS011;9330;52.210;21.174;2023-07-29T05:28:07;10.27;;;9.27;;
18407;SDS011;9330;52.210;21.174;2023-07-29T05:30:33;8.80;;;8.10;;
18407;SDS011;9330;52.210;21.174;2023-07-29T05:33:02;11.55;;;10.55;;
18407;SDS011;9330;52.210;21.174;2023-07-29T05:35:29;9.50;;;8.70;;
18407;SDS011;9330;52.210;21.174;2023-07-29T05:37:58;9.25;;;8.43;;
18407;SDS011;9330;52.210;21.174;2023-07-29T05:40:25;9.60;;;8.70;;
18407;SDS011;9330;52.210;21.174;2023-07-29T05:42:52;9.90;;;9.00;;
18407;SDS011;9330;52.210;21.174;2023-07-29T05:45:19;10.50;;;9.60;;
18407;SDS011;9330;52.210;21.174;2023-07-29T05:47:46;10.77;;;9.77;;
18407;SDS011;9330;52.210;21.174;2023-07-29T05:50:12;11.30;;;10.30;;
18407;SDS011;9330;52.210;21.174;2023-07-29T05:52:39;10.30;;;9.40;;
18407;SDS011;9330;52.210;21.174;2023-07-29T05:55:08;9.07;;;8.25;;
18407;SDS011;9330;52.210;21.174;2023-07-29T05:57:34;9.25;;;8.45;;
18407;SDS011;9330;52.210;21.174;2023-07-29T06:00:01;10.32;;;9.35;;
18407;SDS011;9330;52.210;21.174;2023-07-29T06:02:29;10.60;;;9.70;;
18407;SDS011;9330;52.210;21.174;2023-07-29T06:04:56;8.27;;;7.57;;
18407;SDS011;9330;52.210;21.174;2023-07-29T06:07:22;9.90;;;9.02;;
18407;SDS011;9330;52.210;21.174;2023-07-29T06:09:53;9.90;;;9.00;;
18407;SDS011;9330;52.210;21.174;2023-07-29T06:12:21;11.35;;;10.35;;
18407;SDS011;9330;52.210;21.174;2023-07-29T06:14:48;10.82;;;9.88;;
18407;SDS011;9330;52.210;21.174;2023-07-29T06:17:15;10.43;;;9.48;;
18407;SDS011;9330;52.210;21.174;2023-07-29T06:19:42;10.15;;;9.25;;
18407;SDS011;9330;52.210;21.174;2023-07-29T06:22:09;10.25;;;9.27;;
18407;SDS011;9330;52.210;21.174;2023-07-29T06:24:36;10.40;;;9.40;;
18407;SDS011;9330;52.210;21.174;2023-07-29T06:27:03;9.65;;;8.75;;
18407;SDS011;9330;52.210;21.174;2023-07-29T06:29:32;10.20;;;9.25;;
18407;SDS011;9330;52.210;21.174;2023-07-29T06:31:59;10.23;;;9.32;;
18407;SDS011;9330;52.210;21.174;2023-07-29T06:34:26;10.73;;;9.82;;
18407;SDS011;9330;52.210;21.174;2023-07-29T06:36:53;11.20;;;10.20;;
18407;SDS011;9330;52.210;21.174;2023-07-29T06:39:20;12.65;;;11.48;;
18407;SDS011;9330;52.210;21.174;2023-07-29T06:41:46;11.20;;;10.23;;
18407;SDS011;9330;52.210;21.174;2023-07-29T06:44:13;12.35;;;11.20;;
18407;SDS011;9330;52.210;21.174;2023-07-29T06:46:41;13.52;;;12.32;;
18407;SDS011;9330;52.210;21.174;2023-07-29T06:49:08;12.57;;;11.48;;
18407;SDS011;9330;52.210;21.174;2023-07-29T06:51:35;14.68;;;13.48;;
18407;SDS011;9330;52.210;21.174;2023-07-29T06:54:02;12.38;;;11.38;;
18407;SDS011;9330;52.210;21.174;2023-07-29T06:56:29;14.32;;;13.07;;
18407;SDS011;9330;52.210;21.174;2023-07-29T06:58:56;13.43;;;12.15;;
18407;SDS011;9330;52.210;21.174;2023-07-29T07:01:23;15.95;;;14.55;;
18407;SDS011;9330;52.210;21.174;2023-07-29T07:03:51;15.10;;;13.80;;
18407;SDS011;9330;52.210;21.174;2023-07-29T07:06:19;15.93;;;14.52;;
18407;SDS011;9330;52.210;21.174;2023-07-29T07:08:46;14.95;;;13.55;;
18407;SDS011;9330;52.210;21.174;2023-07-29T07:11:13;13.43;;;12.10;;
18407;SDS011;9330;52.210;21.174;2023-07-29T07:13:40;14.63;;;13.43;;
18407;SDS011;9330;52.210;21.174;2023-07-29T07:16:07;14.60;;;13.15;;
18407;SDS011;9330;52.210;21.174;2023-07-29T07:18:34;13.27;;;12.18;;
18407;SDS011;9330;52.210;21.174;2023-07-29T07:21:02;12.55;;;11.48;;
18407;SDS011;9330;52.210;21.174;2023-07-29T07:23:29;9.25;;;8.52;;
18407;SDS011;9330;52.210;21.174;2023-07-29T07:25:56;13.45;;;12.25;;
18407;SDS011;9330;52.210;21.174;2023-07-29T07:28:23;12.50;;;11.40;;
18407;SDS011;9330;52.210;21.174;2023-07-29T07:30:50;12.18;;;11.18;;
18407;SDS011;9330;52.210;21.174;2023-07-29T07:33:18;12.02;;;11.05;;
18407;SDS011;9330;52.210;21.174;2023-07-29T07:35:45;10.95;;;10.05;;
18407;SDS011;9330;52.210;21.174;2023-07-29T07:38:13;12.82;;;11.63;;
18407;SDS011;9330;52.210;21.174;2023-07-29T07:40:40;11.05;;;10.13;;
18407;SDS011;9330;52.210;21.174;2023-07-29T07:43:07;10.20;;;9.35;;
18407;SDS011;9330;52.210;21.174;2023-07-29T07:45:33;15.52;;;14.07;;
18407;SDS011;9330;52.210;21.174;2023-07-29T07:48:00;11.50;;;10.40;;
18407;SDS011;9330;52.210;21.174;2023-07-29T07:50:28;10.27;;;9.38;;
18407;SDS011;9330;52.210;21.174;2023-07-29T07:52:56;10.98;;;9.88;;
18407;SDS011;9330;52.210;21.174;2023-07-29T07:55:24;12.50;;;11.40;;
18407;SDS011;9330;52.210;21.174;2023-07-29T07:57:51;11.60;;;10.60;;
18407;SDS011;9330;52.210;21.174;2023-07-29T08:00:18;11.25;;;10.25;;
18407;SDS011;9330;52.210;21.174;2023-07-29T08:02:45;10.98;;;10.07;;
18407;SDS011;9330;52.210;21.174;2023-07-29T08:05:12;9.50;;;8.70;;
18407;SDS011;9330;52.210;21.174;2023-07-29T08:07:39;9.98;;;9.13;;
18407;SDS011;9330;52.210;21.174;2023-07-29T08:10:06;9.93;;;8.57;;
18407;SDS011;9330;52.210;21.174;2023-07-29T08:12:35;9.82;;;9.02;;
18407;SDS011;9330;52.210;21.174;2023-07-29T08:15:02;11.13;;;10.02;;
18407;SDS011;9330;52.210;21.174;2023-07-29T08:17:29;9.20;;;8.48;;
18407;SDS011;9330;52.210;21.174;2023-07-29T08:19:56;10.07;;;9.18;;
18407;SDS011;9330;52.210;21.174;2023-07-29T08:22:23;7.68;;;7.07;;
18407;SDS011;9330;52.210;21.174;2023-07-29T08:24:50;9.15;;;8.35;;
18407;SDS011;9330;52.210;21.174;2023-07-29T08:27:17;7.78;;;7.18;;
18407;SDS011;9330;52.210;21.174;2023-07-29T08:29:46;6.85;;;6.35;;
18407;SDS011;9330;52.210;21.174;2023-07-29T08:32:12;6.70;;;6.07;;
18407;SDS011;9330;52.210;21.174;2023-07-29T08:34:39;5.80;;;5.30;;
18407;SDS011;9330;52.210;21.174;2023-07-29T08:37:06;6.28;;;5.78;;
18407;SDS011;9330;52.210;21.174;2023-07-29T08:39:33;5.22;;;4.82;;
18407;SDS011;9330;52.210;21.174;2023-07-29T08:42:01;8.43;;;6.78;;
18407;SDS011;9330;52.210;21.174;2023-07-29T08:44:33;5.35;;;4.95;;
18407;SDS011;9330;52.210;21.174;2023-07-29T08:47:04;5.90;;;5.30;;
18407;SDS011;9330;52.210;21.174;2023-07-29T08:49:31;5.50;;;5.03;;
18407;SDS011;9330;52.210;21.174;2023-07-29T08:51:59;5.22;;;4.72;;
18407;SDS011;9330;52.210;21.174;2023-07-29T08:54:27;5.63;;;4.72;;
18407;SDS011;9330;52.210;21.174;2023-07-29T08:56:54;4.25;;;3.92;;
18407;SDS011;9330;52.210;21.174;2023-07-29T08:59:21;5.45;;;4.85;;
18407;SDS011;9330;52.210;21.174;2023-07-29T09:01:49;4.88;;;4.47;;
18407;SDS011;9330;52.210;21.174;2023-07-29T09:04:22;4.03;;;3.63;;
18407;SDS011;9330;52.210;21.174;2023-07-29T09:06:50;3.70;;;3.40;;
18407;SDS011;9330;52.210;21.174;2023-07-29T09:09:17;3.70;;;3.40;;
18407;SDS011;9330;52.210;21.174;2023-07-29T09:11:44;3.30;;;3.08;;
18407;SDS011;9330;52.210;21.174;2023-07-29T09:14:11;22.15;;;19.83;;
18407;SDS011;9330;52.210;21.174;2023-07-29T09:16:39;7.57;;;6.88;;
18407;SDS011;9330;52.210;21.174;2023-07-29T09:19:06;3.55;;;3.25;;
18407;SDS011;9330;52.210;21.174;2023-07-29T09:21:37;3.17;;;2.90;;
18407;SDS011;9330;52.210;21.174;2023-07-29T09:24:05;2.60;;;2.40;;
18407;SDS011;9330;52.210;21.174;2023-07-29T09:26:32;3.08;;;2.88;;
18407;SDS011;9330;52.210;21.174;2023-07-29T09:29:00;5.15;;;4.43;;
18407;SDS011;9330;52.210;21.174;2023-07-29T09:31:27;3.08;;;2.80;;
18407;SDS011;9330;52.210;21.174;2023-07-29T09:33:55;5.47;;;4.95;;
18407;SDS011;9330;52.210;21.174;2023-07-29T09:36:23;2.85;;;2.42;;
18407;SDS011;9330;52.210;21.174;2023-07-29T09:38:53;2.72;;;2.53;;
18407;SDS011;9330;52.210;21.174;2023-07-29T09:41:21;4.13;;;2.30;;
18407;SDS011;9330;52.210;21.174;2023-07-29T09:43:53;11.85;;;10.70;;
18407;SDS011;9330;52.210;21.174;2023-07-29T09:46:23;15.73;;;14.10;;
18407;SDS011;9330;52.210;21.174;2023-07-29T09:48:52;6.35;;;5.75;;
18407;SDS011;9330;52.210;21.174;2023-07-29T09:51:21;3.03;;;2.72;;
18407;SDS011;9330;52.210;21.174;2023-07-29T09:53:49;3.92;;;2.85;;
18407;SDS011;9330;52.210;21.174;2023-07-29T09:56:25;7.97;;;7.00;;
18407;SDS011;9330;52.210;21.174;2023-07-29T09:58:53;6.60;;;3.83;;
18407;SDS011;9330;52.210;21.174;2023-07-29T10:01:22;13.25;;;11.85;;
18407;SDS011;9330;52.210;21.174;2023-07-29T10:03:50;3.30;;;2.40;;
18407;SDS011;9330;52.210;21.174;2023-07-29T10:06:18;7.18;;;6.40;;
18407;SDS011;9330;52.210;21.174;2023-07-29T10:08:46;3.95;;;3.13;;
18407;SDS011;9330;52.210;21.174;2023-07-29T10:11:15;2.33;;;1.88;;
18407;SDS011;9330;52.210;21.174;2023-07-29T10:13:46;2.67;;;1.80;;
18407;SDS011;9330;52.210;21.174;2023-07-29T10:16:14;2.13;;;1.90;;
18407;SDS011;9330;52.210;21.174;2023-07-29T10:18:41;1.88;;;1.77;;
18407;SDS011;9330;52.210;21.174;2023-07-29T10:21:09;2.38;;;2.08;;
18407;SDS011;9330;52.210;21.174;2023-07-29T10:23:41;1.92;;;1.80;;
18407;SDS011;9330;52.210;21.174;2023-07-29T10:26:13;1.58;;;1.45;;
18407;SDS011;9330;52.210;21.174;2023-07-29T10:28:44;1.90;;;1.80;;
18407;SDS011;9330;52.210;21.174;2023-07-29T10:31:18;3.08;;;2.40;;
18407;SDS011;9330;52.210;21.174;2023-07-29T10:33:47;1.83;;;1.73;;
18407;SDS011;9330;52.210;21.174;2023-07-29T10:36:15;1.95;;;1.70;;
18407;SDS011;9330;52.210;21.174;2023-07-29T10:38:42;1.60;;;1.50;;
18407;SDS011;9330;52.210;21.174;2023-07-29T10:41:10;2.00;;;1.85;;
18407;SDS011;9330;52.210;21.174;2023-07-29T10:43:36;1.88;;;1.77;;
18407;SDS011;9330;52.210;21.174;2023-07-29T10:46:18;5.05;;;4.60;;
18407;SDS011;9330;52.210;21.174;2023-07-29T10:48:52;2.10;;;1.90;;
18407;SDS011;9330;52.210;21.174;2023-07-29T10:51:23;8.50;;;7.70;;
18407;SDS011;9330;52.210;21.174;2023-07-29T10:53:52;2.15;;;1.95;;
18407;SDS011;9330;52.210;21.174;2023-07-29T10:56:24;10.75;;;9.25;;
18407;SDS011;9330;52.210;21.174;2023-07-29T10:58:55;2.60;;;2.40;;
18407;SDS011;9330;52.210;21.174;2023-07-29T11:01:29;2.28;;;2.08;;
18407;SDS011;9330;52.210;21.174;2023-07-29T11:09:58;3.08;;;1.75;;
18407;SDS011;9330;52.210;21.174;2023-07-29T11:12:34;2.08;;;1.67;;
18407;SDS011;9330;52.210;21.174;2023-07-29T11:15:17;1.90;;;1.70;;
18407;SDS011;9330;52.210;21.174;2023-07-29T11:17:47;2.35;;;2.00;;
18407;SDS011;9330;52.210;21.174;2023-07-29T11:20:15;2.22;;;2.03;;
18407;SDS011;9330;52.210;21.174;2023-07-29T11:22:43;2.20;;;2.05;;
18407;SDS011;9330;52.210;21.174;2023-07-29T11:25:11;2.40;;;1.60;;
18407;SDS011;9330;52.210;21.174;2023-07-29T11:27:39;2.08;;;1.60;;
18407;SDS011;9330;52.210;21.174;2023-07-29T11:30:07;1.95;;;1.80;;
18407;SDS011;9330;52.210;21.174;2023-07-29T11:32:35;2.00;;;1.67;;
18407;SDS011;9330;52.210;21.174;2023-07-29T11:35:05;1.65;;;1.48;;
18407;SDS011;9330;52.210;21.174;2023-07-29T11:37:35;1.65;;;1.55;;
18407;SDS011;9330;52.210;21.174;2023-07-29T11:40:02;1.70;;;1.58;;
18407;SDS011;9330;52.210;21.174;2023-07-29T11:42:31;1.63;;;1.52;;
18407;SDS011;9330;52.210;21.174;2023-07-29T11:45:00;1.75;;;1.65;;
18407;SDS011;9330;52.210;21.174;2023-07-29T11:47:28;1.90;;;1.70;;
18407;SDS011;9330;52.210;21.174;2023-07-29T11:49:58;1.63;;;1.52;;
18407;SDS011;9330;52.210;21.174;2023-07-29T11:52:27;3.05;;;2.85;;
18407;SDS011;9330;52.210;21.174;2023-07-29T11:54:55;1.90;;;1.80;;
18407;SDS011;9330;52.210;21.174;2023-07-29T11:57:22;1.80;;;1.70;;
18407;SDS011;9330;52.210;21.174;2023-07-29T11:59:50;1.30;;;1.20;;
18407;SDS011;9330;52.210;21.174;2023-07-29T12:02:17;1.60;;;1.50;;
18407;SDS011;9330;52.210;21.174;2023-07-29T12:04:47;1.55;;;1.45;;
18407;SDS011;9330;52.210;21.174;2023-07-29T12:07:16;3.42;;;2.03;;
18407;SDS011;9330;52.210;21.174;2023-07-29T12:09:45;2.90;;;1.92;;
18407;SDS011;9330;52.210;21.174;2023-07-29T12:12:13;2.38;;;1.70;;
18407;SDS011;9330;52.210;21.174;2023-07-29T12:14:43;2.13;;;2.00;;
18407;SDS011;9330;52.210;21.174;2023-07-29T12:17:11;1.70;;;1.60;;
18407;SDS011;9330;52.210;21.174;2023-07-29T12:19:39;1.67;;;1.58;;
18407;SDS011;9330;52.210;21.174;2023-07-29T12:22:07;2.80;;;2.60;;
18407;SDS011;9330;52.210;21.174;2023-07-29T12:24:36;1.85;;;1.75;;
18407;SDS011;9330;52.210;21.174;2023-07-29T12:27:09;1.50;;;1.40;;
18407;SDS011;9330;52.210;21.174;2023-07-29T12:29:39;2.15;;;1.52;;
18407;SDS011;9330;52.210;21.174;2023-07-29T12:32:08;1.67;;;1.58;;
18407;SDS011;9330;52.210;21.174;2023-07-29T12:34:36;3.05;;;1.80;;
18407;SDS011;9330;52.210;21.174;2023-07-29T12:37:04;2.17;;;2.05;;
18407;SDS011;9330;52.210;21.174;2023-07-29T12:39:33;2.70;;;2.50;;
18407;SDS011;9330;52.210;21.174;2023-07-29T12:42:01;3.15;;;1.50;;
18407;SDS011;9330;52.210;21.174;2023-07-29T12:44:31;1.70;;;1.52;;
18407;SDS011;9330;52.210;21.174;2023-07-29T12:46:59;1.60;;;1.50;;
18407;SDS011;9330;52.210;21.174;2023-07-29T12:49:26;2.58;;;1.90;;
18407;SDS011;9330;52.210;21.174;2023-07-29T12:51:54;2.08;;;1.98;;
18407;SDS011;9330;52.210;21.174;2023-07-29T12:54:21;3.63;;;2.13;;
18407;SDS011;9330;52.210;21.174;2023-07-29T12:56:48;1.83;;;1.70;;
18407;SDS011;9330;52.210;21.174;2023-07-29T12:59:15;2.00;;;1.90;;
18407;SDS011;9330;52.210;21.174;2023-07-29T13:01:43;2.72;;;1.92;;
18407;SDS011;9330;52.210;21.174;2023-07-29T13:04:10;1.60;;;1.50;;
18407;SDS011;9330;52.210;21.174;2023-07-29T13:06:37;1.67;;;1.58;;
18407;SDS011;9330;52.210;21.174;2023-07-29T13:09:04;1.70;;;1.60;;
18407;SDS011;9330;52.210;21.174;2023-07-29T13:11:31;1.77;;;1.67;;
18407;SDS011;9330;52.210;21.174;2023-07-29T13:13:58;1.83;;;1.55;;
18407;SDS011;9330;52.210;21.174;2023-07-29T13:16:26;1.73;;;1.60;;
18407;SDS011;9330;52.210;21.174;2023-07-29T13:18:54;1.67;;;1.58;;
18407;SDS011;9330;52.210;21.174;2023-07-29T13:21:21;1.85;;;1.73;;
18407;SDS011;9330;52.210;21.174;2023-07-29T13:23:48;1.85;;;1.70;;
18407;SDS011;9330;52.210;21.174;2023-07-29T13:26:16;1.83;;;1.73;;
18407;SDS011;9330;52.210;21.174;2023-07-29T13:28:43;1.80;;;1.70;;
18407;SDS011;9330;52.210;21.174;2023-07-29T13:31:10;2.00;;;1.90;;
18407;SDS011;9330;52.210;21.174;2023-07-29T13:33:37;1.90;;;1.73;;
18407;SDS011;9330;52.210;21.174;2023-07-29T13:36:06;2.15;;;1.40;;
18407;SDS011;9330;52.210;21.174;2023-07-29T13:38:34;2.78;;;1.90;;
18407;SDS011;9330;52.210;21.174;2023-07-29T13:41:01;1.73;;;1.63;;
18407;SDS011;9330;52.210;21.174;2023-07-29T13:43:27;2.25;;;2.03;;
18407;SDS011;9330;52.210;21.174;2023-07-29T13:45:54;1.80;;;1.70;;
18407;SDS011;9330;52.210;21.174;2023-07-29T13:48:21;1.90;;;1.75;;
18407;SDS011;9330;52.210;21.174;2023-07-29T13:50:48;2.20;;;2.00;;
18407;SDS011;9330;52.210;21.174;2023-07-29T13:53:17;9.55;;;8.70;;
18407;SDS011;9330;52.210;21.174;2023-07-29T13:55:44;4.45;;;3.80;;
18407;SDS011;9330;52.210;21.174;2023-07-29T13:58:11;2.65;;;2.40;;
18407;SDS011;9330;52.210;21.174;2023-07-29T14:00:38;2.85;;;2.65;;
18407;SDS011;9330;52.210;21.174;2023-07-29T14:03:04;1.55;;;1.45;;
18407;SDS011;9330;52.210;21.174;2023-07-29T14:05:31;2.47;;;2.10;;
18407;SDS011;9330;52.210;21.174;2023-07-29T14:07:58;2.15;;;1.80;;
18407;SDS011;9330;52.210;21.174;2023-07-29T14:10:27;2.30;;;2.10;;
18407;SDS011;9330;52.210;21.174;2023-07-29T14:12:53;1.80;;;1.70;;
18407;SDS011;9330;52.210;21.174;2023-07-29T14:15:20;1.90;;;1.80;;
18407;SDS011;9330;52.210;21.174;2023-07-29T14:17:47;2.05;;;1.88;;
18407;SDS011;9330;52.210;21.174;2023-07-29T14:20:14;2.20;;;1.95;;
18407;SDS011;9330;52.210;21.174;2023-07-29T14:22:41;2.15;;;1.73;;
18407;SDS011;9330;52.210;21.174;2023-07-29T14:25:08;1.88;;;1.63;;
18407;SDS011;9330;52.210;21.174;2023-07-29T14:27:36;2.10;;;1.90;;
18407;SDS011;9330;52.210;21.174;2023-07-29T14:30:03;1.63;;;1.52;;
18407;SDS011;9330;52.210;21.174;2023-07-29T14:32:31;1.98;;;1.75;;
18407;SDS011;9330;52.210;21.174;2023-07-29T14:34:58;3.00;;;1.90;;
18407;SDS011;9330;52.210;21.174;2023-07-29T14:37:28;1.58;;;1.48;;
18407;SDS011;9330;52.210;21.174;2023-07-29T14:39:56;2.30;;;2.10;;
18407;SDS011;9330;52.210;21.174;2023-07-29T14:42:23;1.92;;;1.70;;
18407;SDS011;9330;52.210;21.174;2023-07-29T14:44:51;1.90;;;1.80;;
18407;SDS011;9330;52.210;21.174;2023-07-29T14:47:18;1.83;;;1.73;;
18407;SDS011;9330;52.210;21.174;2023-07-29T14:49:45;1.52;;;1.42;;
18407;SDS011;9330;52.210;21.174;2023-07-29T14:52:13;1.90;;;1.80;;
18407;SDS011;9330;52.210;21.174;2023-07-29T14:54:40;2.15;;;1.50;;